This is the latest recevied weather packets stored in our database for station/object LU4EGV-13. If no packets are shown the sender has not sent any weather packets the latest 10 day(s).
| Time | Temp. | Humidity | Pressure | Rain* | Wind** | Luminosity | Snow |
|---|---|---|---|---|---|---|---|
| 1788202308 | 18.33° C | 66% | 1012.9 hPa | 0 mm | - | - | - |
| 1788201702 | 17.78° C | 68% | 1012.6 hPa | 0 mm | - | - | - |
| 1788201096 | 17.78° C | 66% | 1012.4 hPa | 0 mm | - | - | - |
| 1788200490 | 18.33° C | 66% | 1012.2 hPa | 0 mm | - | - | - |
| 1788199884 | 18.89° C | 65% | 1012.2 hPa | 0 mm | - | - | - |
| 1788199281 | 19.44° C | 64% | 1012.2 hPa | 0 mm | - | - | - |
| 1788198672 | 19.44° C | 65% | 1012.2 hPa | 0 mm | - | - | - |
| 1788198065 | 19.44° C | 64% | 1012 hPa | 0 mm | - | - | - |
| 1788197459 | 19.44° C | 65% | 1012.3 hPa | 0 mm | - | - | - |
| 1788196852 | 19.44° C | 64% | 1012.3 hPa | 0 mm | - | - | - |
| 1788196257 | 19.44° C | 62% | 1012.3 hPa | 0 mm | - | - | - |
| 1788195640 | 20.56° C | 60% | 1012.5 hPa | 0 mm | - | - | - |
| 1788195035 | 20.56° C | 59% | 1012.5 hPa | 0 mm | - | - | - |
| 1788194441 | 20.56° C | 59% | 1012.6 hPa | 0 mm | - | - | - |
| 1788193834 | 20° C | 61% | 1012.6 hPa | 0 mm | - | - | - |
| 1788193216 | 20.56° C | 62% | 1012.6 hPa | 0 mm | - | - | - |
| 1788192610 | 20° C | 63% | 1012.7 hPa | 0 mm | - | - | - |
| 1788192014 | 19.44° C | 66% | 1012.9 hPa | 0 mm | - | - | - |
| 1788191405 | 18.33° C | 67% | 1012.8 hPa | 0 mm | - | - | - |
| 1788190790 | 18.33° C | 68% | 1013 hPa | 0 mm | - | - | - |
| 1788190185 | 18.33° C | 69% | 1013.2 hPa | 0 mm | - | - | - |
| 1788189578 | 18.33° C | 72% | 1013.4 hPa | 0 mm | - | - | - |
| 1788188972 | 17.78° C | 72% | 1013.7 hPa | 0 mm | - | - | - |
| 1788188367 | 17.22° C | 72% | 1013.7 hPa | 0 mm | - | - | - |
| 1788187761 | 16.67° C | 73% | 1013.9 hPa | 0 mm | - | - | - |
* Rain latest hour (hover to see other rain measurements)
** Current wind speed in m/s (hover to see current wind gust speed)